createdAt,value
2022-08-05T00:00:55.205Z,22.62
2022-08-05T00:03:28.081Z,22.68
2022-08-05T00:06:06.403Z,22.75
2022-08-05T00:08:45.396Z,22.86
2022-08-05T00:11:20.656Z,23.04
2022-08-05T00:13:55.065Z,23.21
2022-08-05T00:16:36.165Z,23.20
2022-08-05T00:19:08.661Z,23.36
2022-08-05T00:21:35.864Z,23.35
2022-08-05T00:24:11.060Z,23.39
2022-08-05T00:26:50.539Z,23.49
2022-08-05T00:29:18.423Z,23.40
2022-08-05T00:32:11.216Z,23.21
2022-08-05T00:34:53.626Z,23.10
2022-08-05T00:37:22.527Z,23.07
2022-08-05T00:39:58.812Z,23.18
2022-08-05T00:42:37.122Z,23.23
2022-08-05T00:45:08.435Z,23.10
2022-08-05T00:47:56.249Z,22.97
2022-08-05T00:50:25.433Z,22.85
2022-08-05T00:52:53.307Z,22.61
2022-08-05T00:55:21.530Z,22.39
2022-08-05T00:57:55.503Z,22.18
2022-08-05T01:00:29.139Z,21.96
2022-08-05T01:02:56.911Z,21.69
2022-08-05T01:05:24.850Z,21.75
2022-08-05T01:08:41.029Z,21.66
2022-08-05T01:10:52.495Z,21.70
2022-08-05T01:13:57.765Z,21.86
2022-08-05T01:16:26.462Z,21.98
2022-08-05T01:19:01.102Z,21.92
2022-08-05T01:21:59.956Z,21.58
2022-08-05T01:24:35.682Z,21.36
2022-08-05T01:27:50.613Z,21.23
2022-08-05T01:30:34.279Z,21.03
2022-08-05T01:33:06.242Z,20.84
2022-08-05T01:35:51.833Z,20.77
2022-08-05T01:38:27.137Z,20.80
2022-08-05T01:41:00.068Z,21.01
2022-08-05T01:43:29.832Z,21.04
2022-08-05T01:45:57.774Z,21.02
2022-08-05T01:48:27.225Z,20.90
2022-08-05T01:50:56.695Z,20.71
2022-08-05T01:53:54.604Z,20.56
2022-08-05T01:58:10.296Z,20.44
2022-08-05T01:59:06.438Z,20.39
2022-08-05T02:01:39.993Z,20.47
2022-08-05T02:04:10.274Z,20.54
2022-08-05T02:06:39.106Z,20.62
2022-08-05T02:09:07.124Z,20.50
2022-08-05T02:12:04.908Z,20.27
2022-08-05T02:15:12.262Z,20.23
2022-08-05T02:18:28.404Z,20.21
2022-08-05T02:20:46.943Z,20.30
2022-08-05T02:23:14.949Z,20.39
2022-08-05T02:25:49.761Z,20.37
2022-08-05T02:28:29.202Z,20.29
2022-08-05T02:31:14.340Z,20.13
2022-08-05T02:33:48.543Z,20.25
2022-08-05T02:36:19.247Z,20.43
2022-08-05T02:38:53.174Z,20.51
2022-08-05T02:41:22.888Z,20.37
2022-08-05T02:44:06.172Z,20.30
2022-08-05T02:46:43.883Z,20.22
2022-08-05T02:49:21.890Z,20.25
2022-08-05T02:52:03.165Z,20.20
2022-08-05T02:54:36.373Z,20.10
2022-08-05T02:57:10.047Z,20.06
2022-08-05T02:59:55.268Z,19.97
2022-08-05T03:02:29.588Z,19.94
2022-08-05T03:04:57.861Z,19.97
2022-08-05T03:07:59.272Z,19.99
2022-08-05T03:10:21.731Z,19.87
2022-08-05T03:12:54.155Z,19.80
2022-08-05T03:15:23.772Z,19.83
2022-08-05T03:17:54.268Z,19.91
2022-08-05T03:20:22.325Z,19.91
2022-08-05T03:22:51.100Z,19.90
2022-08-05T03:25:33.878Z,20.00
2022-08-05T03:28:08.245Z,19.94
2022-08-05T03:30:36.753Z,19.91
2022-08-05T03:33:06.324Z,19.95
2022-08-05T03:35:41.052Z,19.97
2022-08-05T03:38:11.527Z,19.93
2022-08-05T03:40:48.439Z,19.98
2022-08-05T03:44:08.202Z,20.09
2022-08-05T03:46:04.667Z,20.09
2022-08-05T03:48:35.387Z,20.00
2022-08-05T03:52:48.274Z,19.94
2022-08-05T03:55:07.010Z,19.90
2022-08-05T03:57:34.172Z,19.94
2022-08-05T03:59:56.130Z,19.95
2022-08-05T04:02:38.628Z,19.84
2022-08-05T04:05:12.992Z,19.70
2022-08-05T04:07:57.730Z,19.71
2022-08-05T04:10:32.043Z,19.77
2022-08-05T04:13:03.386Z,19.89
2022-08-05T04:15:33.152Z,19.78
2022-08-05T04:18:07.034Z,19.63
2022-08-05T04:20:34.516Z,19.62
2022-08-05T04:23:01.558Z,19.59
2022-08-05T04:25:56.500Z,19.53
2022-08-05T04:28:15.154Z,19.45
2022-08-05T04:30:45.103Z,19.45
2022-08-05T04:33:12.570Z,19.48
2022-08-05T04:36:10.945Z,19.36
2022-08-05T04:38:39.218Z,19.20
2022-08-05T04:41:07.514Z,19.18
2022-08-05T04:43:36.429Z,19.14
2022-08-05T04:46:04.623Z,19.13
2022-08-05T04:48:32.351Z,19.21
2022-08-05T04:51:03.774Z,19.26
2022-08-05T04:53:38.799Z,19.25
2022-08-05T04:56:15.129Z,19.16
2022-08-05T04:58:54.656Z,19.36
2022-08-05T05:02:06.075Z,19.42
2022-08-05T05:04:07.910Z,19.42
2022-08-05T05:06:44.866Z,19.38
2022-08-05T05:09:18.320Z,19.35
2022-08-05T05:11:53.237Z,19.36
2022-08-05T05:14:27.720Z,19.44
2022-08-05T05:17:01.470Z,19.37
2022-08-05T05:19:36.776Z,19.47
2022-08-05T05:22:23.991Z,19.62
2022-08-05T05:24:57.352Z,19.62
2022-08-05T05:27:25.245Z,19.45
2022-08-05T05:30:29.852Z,19.60
2022-08-05T05:32:56.137Z,19.59
2022-08-05T05:35:23.181Z,19.43
2022-08-05T05:38:00.245Z,19.38
2022-08-05T05:40:30.034Z,19.49
2022-08-05T05:43:00.056Z,19.49
2022-08-05T05:45:29.462Z,19.29
2022-08-05T05:48:07.954Z,19.42
2022-08-05T05:50:43.920Z,19.55
2022-08-05T05:53:22.247Z,19.66
2022-08-05T05:55:51.655Z,19.42
2022-08-05T05:58:30.397Z,19.28
2022-08-05T06:01:12.877Z,19.23
2022-08-05T06:04:01.077Z,19.03
2022-08-05T06:06:31.368Z,18.83
2022-08-05T06:09:00.025Z,18.68
2022-08-05T06:11:28.858Z,18.38
2022-08-05T06:13:55.919Z,18.10
2022-08-05T06:16:29.866Z,17.83
2022-08-05T06:19:00.286Z,17.33
2022-08-05T06:21:36.690Z,17.11
2022-08-05T06:24:11.921Z,17.07
2022-08-05T06:26:51.557Z,16.92
2022-08-05T06:29:25.306Z,16.69
2022-08-05T06:32:24.978Z,16.66
2022-08-05T06:34:56.345Z,16.54
2022-08-05T06:37:57.561Z,16.51
2022-08-05T06:40:12.091Z,16.50
2022-08-05T06:42:39.890Z,16.66
2022-08-05T06:45:09.070Z,16.69
2022-08-05T06:48:36.988Z,16.67
2022-08-05T06:50:27.083Z,16.61
2022-08-05T06:53:03.986Z,16.65
2022-08-05T06:55:38.502Z,16.61
2022-08-05T06:58:19.683Z,16.67
2022-08-05T07:01:04.172Z,16.68
2022-08-05T07:03:32.767Z,16.81
2022-08-05T07:06:05.845Z,16.77
2022-08-05T07:08:47.183Z,16.94
2022-08-05T07:11:15.875Z,16.91
2022-08-05T07:14:02.135Z,16.81
2022-08-05T07:17:59.875Z,16.81
2022-08-05T07:22:28.215Z,16.83
2022-08-05T07:25:22.868Z,16.81
2022-08-05T07:27:57.134Z,16.75
2022-08-05T07:30:31.701Z,16.82
2022-08-05T07:33:05.108Z,16.69
2022-08-05T07:36:04.062Z,16.79
2022-08-05T07:38:32.993Z,16.78
2022-08-05T07:42:08.032Z,16.84
2022-08-05T07:43:57.068Z,16.79
2022-08-05T07:46:30.653Z,16.83
2022-08-05T07:49:02.217Z,16.81
2022-08-05T07:51:48.525Z,16.89
2022-08-05T07:54:23.196Z,16.89
2022-08-05T07:57:14.790Z,17.10
2022-08-05T07:59:41.084Z,17.10
2022-08-05T08:02:16.902Z,17.11
2022-08-05T08:04:48.371Z,17.12
2022-08-05T08:07:17.978Z,17.18
2022-08-05T08:09:46.065Z,17.18
2022-08-05T08:12:35.083Z,17.33
2022-08-05T08:15:04.336Z,17.45
2022-08-05T08:17:35.422Z,17.37
2022-08-05T08:20:44.605Z,17.38
2022-08-05T08:22:56.564Z,17.41
2022-08-05T08:25:35.975Z,17.32
2022-08-05T08:28:18.275Z,17.36
2022-08-05T08:30:57.626Z,17.31
2022-08-05T08:33:24.299Z,17.35
2022-08-05T08:36:07.975Z,17.47
2022-08-05T08:38:40.912Z,17.52
2022-08-05T08:41:10.528Z,17.48
2022-08-05T08:45:19.056Z,17.48
2022-08-05T08:46:31.232Z,17.52
2022-08-05T08:49:09.532Z,17.57
2022-08-05T08:52:06.154Z,17.61
2022-08-05T08:54:42.263Z,17.58
2022-08-05T08:57:11.443Z,17.52
2022-08-05T08:59:47.431Z,17.50
2022-08-05T09:02:17.744Z,17.62
2022-08-05T09:04:58.578Z,17.60
2022-08-05T09:07:39.879Z,17.65
2022-08-05T09:10:27.646Z,17.77
2022-08-05T09:12:55.564Z,17.79
2022-08-05T09:15:22.955Z,18.00
2022-08-05T09:17:53.080Z,18.21
2022-08-05T09:20:36.300Z,18.36
2022-08-05T09:23:18.821Z,18.47
2022-08-05T09:26:01.346Z,18.36
2022-08-05T09:28:32.078Z,18.35
2022-08-05T09:31:23.023Z,18.36
2022-08-05T09:34:05.204Z,18.37
2022-08-05T09:36:54.593Z,18.45
2022-08-05T09:39:24.593Z,18.61
2022-08-05T09:42:07.765Z,18.63
2022-08-05T09:44:38.325Z,18.65
2022-08-05T09:47:15.598Z,18.68
2022-08-05T09:50:02.248Z,18.69
2022-08-05T09:52:36.021Z,18.51
2022-08-05T09:55:56.421Z,18.58
2022-08-05T09:57:59.955Z,18.68
2022-08-05T10:00:27.746Z,18.77
2022-08-05T10:02:58.242Z,18.82
2022-08-05T10:05:27.972Z,18.96
2022-08-05T10:08:34.817Z,19.01
2022-08-05T10:10:53.969Z,19.16
2022-08-05T10:13:47.175Z,19.15
2022-08-05T10:16:41.912Z,19.09
2022-08-05T10:19:23.761Z,19.17
2022-08-05T10:21:59.040Z,19.40
2022-08-05T10:24:27.159Z,19.15
2022-08-05T10:26:56.234Z,19.65
2022-08-05T10:30:41.540Z,19.81
2022-08-05T10:33:01.989Z,20.12
2022-08-05T10:35:03.324Z,20.17
2022-08-05T10:37:40.311Z,19.90
2022-08-05T10:40:27.791Z,19.77
2022-08-05T10:43:01.747Z,19.72
2022-08-05T10:45:39.823Z,19.80
2022-08-05T10:48:52.315Z,19.89
2022-08-05T10:51:29.014Z,20.14
2022-08-05T10:54:01.809Z,20.16
2022-08-05T10:56:45.078Z,20.32
2022-08-05T11:00:04.430Z,20.61
2022-08-05T11:02:37.508Z,20.78
2022-08-05T11:05:08.552Z,20.52
2022-08-05T11:08:02.605Z,20.51
2022-08-05T11:10:37.274Z,20.54
2022-08-05T11:13:06.533Z,20.73
2022-08-05T11:16:00.987Z,20.97
2022-08-05T11:18:34.282Z,21.00
2022-08-05T11:21:11.357Z,21.05
2022-08-05T11:24:03.996Z,21.10
2022-08-05T11:26:32.841Z,21.12
2022-08-05T11:29:12.880Z,21.16
2022-08-05T11:31:57.453Z,20.96
2022-08-05T11:34:52.214Z,21.00
2022-08-05T11:38:26.403Z,21.10
2022-08-05T11:41:13.913Z,21.22
2022-08-05T11:44:07.577Z,21.28
2022-08-05T11:47:09.829Z,21.12
2022-08-05T11:49:33.753Z,21.20
2022-08-05T11:52:02.003Z,20.95
2022-08-05T11:54:40.592Z,20.79
2022-08-05T11:57:25.563Z,20.76
2022-08-05T11:59:54.302Z,20.68
2022-08-05T12:02:36.031Z,20.52
2022-08-05T12:05:07.328Z,20.47
2022-08-05T12:08:07.310Z,20.41
2022-08-05T12:10:38.529Z,20.43
2022-08-05T12:13:15.501Z,20.47
2022-08-05T12:15:49.657Z,20.21
2022-08-05T12:18:32.754Z,20.23
2022-08-05T12:21:15.226Z,20.26
2022-08-05T12:23:52.840Z,19.80
2022-08-05T12:26:19.843Z,19.57
2022-08-05T12:28:48.762Z,19.66
2022-08-05T12:31:23.668Z,19.49
2022-08-05T12:34:06.055Z,19.15
2022-08-05T12:36:33.765Z,18.95
2022-08-05T12:39:05.559Z,18.77
2022-08-05T12:41:35.662Z,18.75
2022-08-05T12:44:14.220Z,18.68
2022-08-05T12:46:45.591Z,18.60
2022-08-05T12:49:15.040Z,18.13
2022-08-05T12:52:13.481Z,17.83
2022-08-05T12:54:35.620Z,17.86
2022-08-05T12:57:09.507Z,17.70
2022-08-05T13:01:56.754Z,17.51
2022-08-05T13:02:37.174Z,17.45
2022-08-05T13:05:07.259Z,17.31
2022-08-05T13:10:21.761Z,17.64
2022-08-05T13:12:57.183Z,17.31
2022-08-05T13:15:41.922Z,17.39
2022-08-05T13:18:20.014Z,17.71
2022-08-05T13:20:49.163Z,17.90
2022-08-05T13:23:18.094Z,17.97
2022-08-05T13:25:52.120Z,18.06
2022-08-05T13:28:25.976Z,18.16
2022-08-05T13:30:53.372Z,18.36
2022-08-05T13:34:21.031Z,18.45
2022-08-05T13:36:09.162Z,18.33
2022-08-05T13:38:38.413Z,18.50
2022-08-05T13:41:09.995Z,18.51
2022-08-05T13:43:44.682Z,18.76
2022-08-05T13:46:37.781Z,18.89
2022-08-05T13:49:10.261Z,18.81
2022-08-05T13:51:41.057Z,18.72
2022-08-05T13:54:13.639Z,18.77
2022-08-05T13:56:45.237Z,18.75
2022-08-05T13:59:24.207Z,18.69
2022-08-05T14:01:58.926Z,18.55
2022-08-05T14:04:53.175Z,18.68
2022-08-05T14:07:55.746Z,18.74
2022-08-05T14:10:19.048Z,18.67
2022-08-05T14:12:55.238Z,18.34
2022-08-05T14:16:05.996Z,18.50
2022-08-05T14:18:15.151Z,18.42
2022-08-05T14:20:47.949Z,18.44
2022-08-05T14:23:24.522Z,18.45
2022-08-05T14:25:53.944Z,18.42
2022-08-05T14:28:26.355Z,18.18
2022-08-05T14:31:01.355Z,18.29
2022-08-05T14:33:32.620Z,18.38
2022-08-05T14:36:15.463Z,18.39
2022-08-05T14:38:42.149Z,18.49
2022-08-05T14:41:11.311Z,18.45
2022-08-05T14:43:58.833Z,18.55
2022-08-05T14:46:31.493Z,18.40
2022-08-05T14:49:07.566Z,18.38
2022-08-05T14:51:39.019Z,18.46
2022-08-05T14:54:28.527Z,18.56
2022-08-05T14:56:58.471Z,18.48
2022-08-05T14:59:29.538Z,18.46
2022-08-05T15:02:02.446Z,18.57
2022-08-05T15:04:29.678Z,18.54
2022-08-05T15:06:56.352Z,18.34
2022-08-05T15:09:52.223Z,18.26
2022-08-05T15:12:11.686Z,17.99
2022-08-05T15:14:49.473Z,17.95
2022-08-05T15:17:47.456Z,17.91
2022-08-05T15:20:06.034Z,17.82
2022-08-05T15:22:32.798Z,17.62
2022-08-05T15:25:00.539Z,17.58
2022-08-05T15:27:38.687Z,17.48
2022-08-05T15:30:11.020Z,17.61
2022-08-05T15:32:41.105Z,17.49
2022-08-05T15:35:10.685Z,17.36
2022-08-05T15:38:34.273Z,17.19
2022-08-05T15:41:04.794Z,17.33
2022-08-05T15:43:20.293Z,17.28
2022-08-05T15:46:00.431Z,17.15
2022-08-05T15:48:28.625Z,17.02
2022-08-05T15:50:55.240Z,16.91
2022-08-05T15:53:23.336Z,16.96
2022-08-05T15:56:02.723Z,16.95
2022-08-05T15:58:35.593Z,16.95
2022-08-05T16:01:17.064Z,16.92
2022-08-05T16:03:48.281Z,16.88
2022-08-05T16:06:15.901Z,17.03
2022-08-05T16:08:47.625Z,17.08
2022-08-05T16:11:14.232Z,17.08
2022-08-05T16:13:41.702Z,17.15
2022-08-05T16:16:10.845Z,17.16
2022-08-05T16:18:52.513Z,17.26
2022-08-05T16:21:20.812Z,17.39
2022-08-05T16:24:12.626Z,17.37
2022-08-05T16:27:09.599Z,17.41
2022-08-05T16:29:37.424Z,17.48
2022-08-05T16:32:09.644Z,17.48
2022-08-05T16:34:37.134Z,17.65
2022-08-05T16:38:10.576Z,18.37
2022-08-05T16:40:04.818Z,18.62
2022-08-05T16:42:34.389Z,19.11
2022-08-05T16:45:01.566Z,19.84
2022-08-05T16:47:36.341Z,20.59
2022-08-05T16:50:15.283Z,20.95
2022-08-05T16:52:45.975Z,20.69
2022-08-05T16:55:12.973Z,20.70
2022-08-05T16:57:53.247Z,20.77
2022-08-05T17:00:35.106Z,20.31
2022-08-05T17:03:09.286Z,19.94
2022-08-05T17:05:48.963Z,19.57
2022-08-05T17:08:36.073Z,19.63
2022-08-05T17:11:08.875Z,19.95
2022-08-05T17:13:41.428Z,19.93
2022-08-05T17:16:28.108Z,20.32
2022-08-05T17:18:55.582Z,20.78
2022-08-05T17:21:23.748Z,21.05
2022-08-05T17:24:04.959Z,21.59
2022-08-05T17:26:36.227Z,21.78
2022-08-05T17:29:07.580Z,21.43
2022-08-05T17:31:56.442Z,21.35
2022-08-05T17:34:29.449Z,21.69
2022-08-05T17:36:57.078Z,21.79
2022-08-05T17:39:29.899Z,21.32
2022-08-05T17:42:18.439Z,21.24
2022-08-05T17:44:50.464Z,20.53
2022-08-05T17:47:22.108Z,20.93
2022-08-05T17:50:00.457Z,20.61
2022-08-05T17:52:32.538Z,21.02
2022-08-05T17:55:00.231Z,21.01
2022-08-05T17:57:27.917Z,20.95
2022-08-05T18:00:04.818Z,20.71
2022-08-05T18:02:31.931Z,20.90
2022-08-05T18:04:58.957Z,20.98
2022-08-05T18:07:32.738Z,20.88
2022-08-05T18:10:10.426Z,20.58
2022-08-05T18:12:37.649Z,20.70
2022-08-05T18:15:04.965Z,20.48
2022-08-05T18:17:58.635Z,20.64
2022-08-05T18:20:19.567Z,20.73
2022-08-05T18:22:57.529Z,20.50
2022-08-05T18:25:25.021Z,20.45
2022-08-05T18:27:52.812Z,20.23
2022-08-05T18:30:19.738Z,19.89
2022-08-05T18:32:53.037Z,19.69
2022-08-05T18:35:21.031Z,19.44
2022-08-05T18:38:08.332Z,19.24
2022-08-05T18:41:56.091Z,19.15
2022-08-05T18:43:21.945Z,19.04
2022-08-05T18:45:49.776Z,18.79
2022-08-05T18:48:30.650Z,18.74
2022-08-05T18:52:03.029Z,18.75
2022-08-05T18:54:04.055Z,18.56
2022-08-05T18:56:30.671Z,18.31
2022-08-05T18:59:01.159Z,18.17
2022-08-05T19:01:47.274Z,18.01
2022-08-05T19:04:14.896Z,17.98
2022-08-05T19:06:50.914Z,17.91
2022-08-05T19:09:17.659Z,17.75
2022-08-05T19:12:00.027Z,17.70
2022-08-05T19:14:37.808Z,17.65
2022-08-05T19:17:15.673Z,17.72
2022-08-05T19:19:46.660Z,17.92
2022-08-05T19:22:17.100Z,18.07
2022-08-05T19:24:54.627Z,18.07
2022-08-05T19:27:23.026Z,18.10
2022-08-05T19:29:50.046Z,18.22
2022-08-05T19:32:16.648Z,18.29
2022-08-05T19:34:54.527Z,18.35
2022-08-05T19:37:29.867Z,18.36
2022-08-05T19:40:02.580Z,18.31
2022-08-05T19:42:36.306Z,18.17
2022-08-05T19:45:06.431Z,18.17
2022-08-05T19:47:41.166Z,18.15
2022-08-05T19:50:10.562Z,18.09
2022-08-05T19:52:39.308Z,17.93
2022-08-05T19:56:11.492Z,17.79
2022-08-05T19:58:07.023Z,17.82
2022-08-05T20:00:40.396Z,17.82
2022-08-05T20:03:08.557Z,17.81
2022-08-05T20:05:49.913Z,17.72
2022-08-05T20:08:17.171Z,17.71
2022-08-05T20:10:43.825Z,17.65
2022-08-05T20:13:12.081Z,17.56
2022-08-05T20:15:50.764Z,17.49
2022-08-05T20:18:35.803Z,17.43
2022-08-05T20:21:05.144Z,17.38
2022-08-05T20:23:39.324Z,17.32
2022-08-05T20:26:17.805Z,17.20
2022-08-05T20:28:50.233Z,17.12
2022-08-05T20:31:21.886Z,17.03
2022-08-05T20:33:55.205Z,16.88
2022-08-05T20:36:22.560Z,16.83
2022-08-05T20:38:54.199Z,16.68
2022-08-05T20:41:27.075Z,16.49
2022-08-05T20:44:19.436Z,16.56
2022-08-05T20:46:58.116Z,16.35
2022-08-05T20:49:26.082Z,16.46
2022-08-05T20:51:57.922Z,16.36
2022-08-05T20:54:55.349Z,16.49
2022-08-05T20:57:14.351Z,16.54
2022-08-05T21:00:10.147Z,16.52
2022-08-05T21:02:28.321Z,16.66
2022-08-05T21:04:56.181Z,16.79
2022-08-05T21:07:24.390Z,16.91
2022-08-05T21:09:54.552Z,17.06
2022-08-05T21:12:26.729Z,17.05
2022-08-05T21:14:53.958Z,17.01
2022-08-05T21:17:22.460Z,17.17
2022-08-05T21:19:55.232Z,17.25
2022-08-05T21:22:23.428Z,17.22
2022-08-05T21:24:54.230Z,16.91
2022-08-05T21:27:24.786Z,16.97
2022-08-05T21:29:54.082Z,16.98
2022-08-05T21:32:27.858Z,16.98
2022-08-05T21:35:17.842Z,17.01
2022-08-05T21:37:47.283Z,17.06
2022-08-05T21:40:26.817Z,17.09
2022-08-05T21:42:54.237Z,17.11
2022-08-05T21:45:56.291Z,17.13
2022-08-05T21:48:16.289Z,16.98
2022-08-05T21:50:54.059Z,17.02
2022-08-05T21:53:27.639Z,16.85
2022-08-05T21:56:05.296Z,16.78
2022-08-05T21:58:42.245Z,16.61
2022-08-05T22:01:11.941Z,16.54
2022-08-05T22:03:53.913Z,16.47
2022-08-05T22:06:35.324Z,16.28
2022-08-05T22:09:13.547Z,16.23
2022-08-05T22:11:47.627Z,16.19
2022-08-05T22:14:33.685Z,16.02
2022-08-05T22:17:04.926Z,15.67
2022-08-05T22:19:57.431Z,15.61
2022-08-05T22:22:31.291Z,15.49
2022-08-05T22:25:21.115Z,15.49
2022-08-05T22:28:09.415Z,15.39
2022-08-05T22:30:55.859Z,15.37
2022-08-05T22:33:57.323Z,15.25
2022-08-05T22:36:17.669Z,15.28
2022-08-05T22:38:49.136Z,15.18
2022-08-05T22:42:05.445Z,15.20
2022-08-05T22:44:04.908Z,15.27
2022-08-05T22:46:33.757Z,15.32
2022-08-05T22:49:06.640Z,15.29
2022-08-05T22:52:07.105Z,15.32
2022-08-05T22:54:23.557Z,15.42
2022-08-05T22:56:52.554Z,15.55
2022-08-05T22:59:44.251Z,15.65
2022-08-05T23:02:07.968Z,15.67
2022-08-05T23:04:40.115Z,15.76
2022-08-05T23:07:07.174Z,15.81
2022-08-05T23:09:57.437Z,15.86
2022-08-05T23:12:24.699Z,15.87
2022-08-05T23:14:54.262Z,15.85
2022-08-05T23:17:34.803Z,15.82
2022-08-05T23:20:16.719Z,15.93
2022-08-05T23:22:50.931Z,15.92
2022-08-05T23:25:53.571Z,15.85
2022-08-05T23:28:10.770Z,15.87
2022-08-05T23:30:40.103Z,15.83
2022-08-05T23:33:22.245Z,15.80
2022-08-05T23:35:56.208Z,15.76
2022-08-05T23:38:32.749Z,15.73
2022-08-05T23:40:59.395Z,15.71
2022-08-05T23:44:04.568Z,15.65
2022-08-05T23:46:20.315Z,15.58
2022-08-05T23:48:59.248Z,15.49
2022-08-05T23:51:52.720Z,15.38
2022-08-05T23:54:30.001Z,15.37
2022-08-05T23:57:03.783Z,15.26
2022-08-05T23:59:37.335Z,15.19
